createdAt,value
2024-01-26T00:00:32.785Z,96.64
2024-01-26T00:03:01.141Z,98.31
2024-01-26T00:05:28.703Z,98.80
2024-01-26T00:07:56.260Z,100.00
2024-01-26T00:10:24.083Z,100.00
2024-01-26T00:12:51.435Z,100.00
2024-01-26T00:15:19.563Z,100.00
2024-01-26T00:17:46.914Z,100.00
2024-01-26T00:20:14.542Z,100.00
2024-01-26T00:22:41.836Z,100.00
2024-01-26T00:25:09.919Z,100.00
2024-01-26T00:27:37.646Z,100.00
2024-01-26T00:30:08.107Z,100.00
2024-01-26T00:32:35.739Z,100.00
2024-01-26T00:35:03.259Z,100.00
2024-01-26T00:37:30.919Z,100.00
2024-01-26T00:39:59.094Z,100.00
2024-01-26T00:42:26.578Z,100.00
2024-01-26T00:44:55.146Z,100.00
2024-01-26T00:47:22.444Z,100.00
2024-01-26T00:49:52.970Z,100.00
2024-01-26T00:52:20.845Z,100.00
2024-01-26T00:54:48.154Z,100.00
2024-01-26T00:57:15.504Z,100.00
2024-01-26T00:59:42.955Z,100.00
2024-01-26T01:02:10.453Z,100.00
2024-01-26T01:04:37.982Z,100.00
2024-01-26T01:07:05.618Z,100.00
2024-01-26T01:09:36.214Z,100.00
2024-01-26T01:12:04.148Z,100.00
2024-01-26T01:14:32.035Z,100.00
2024-01-26T01:16:59.443Z,100.00
2024-01-26T01:19:26.901Z,100.00
2024-01-26T01:21:54.503Z,100.00
2024-01-26T01:24:21.781Z,100.00
2024-01-26T01:26:49.118Z,100.00
2024-01-26T01:29:16.695Z,100.00
2024-01-26T01:31:43.956Z,100.00
2024-01-26T01:34:11.450Z,100.00
2024-01-26T01:36:38.944Z,100.00
2024-01-26T01:39:06.295Z,100.00
2024-01-26T01:41:34.110Z,100.00
2024-01-26T01:44:01.410Z,100.00
2024-01-26T01:46:28.883Z,100.00
2024-01-26T01:48:56.624Z,100.00
2024-01-26T01:51:25.241Z,100.00
2024-01-26T01:53:53.434Z,100.00
2024-01-26T01:56:24.548Z,100.00
2024-01-26T01:58:53.293Z,100.00
2024-01-26T02:01:20.923Z,100.00
2024-01-26T02:03:48.289Z,100.00
2024-01-26T02:06:16.093Z,100.00
2024-01-26T02:08:43.868Z,100.00
2024-01-26T02:11:12.363Z,100.00
2024-01-26T02:13:39.747Z,100.00
2024-01-26T02:16:07.717Z,100.00
2024-01-26T02:18:35.193Z,100.00
2024-01-26T02:21:02.555Z,100.00
2024-01-26T02:23:30.008Z,100.00
2024-01-26T02:25:57.325Z,100.00
2024-01-26T02:28:24.765Z,100.00
2024-01-26T02:30:52.152Z,100.00
2024-01-26T02:33:19.828Z,100.00
2024-01-26T02:35:47.392Z,100.00
2024-01-26T02:38:14.891Z,100.00
2024-01-26T02:40:42.235Z,100.00
2024-01-26T02:43:09.656Z,100.00
2024-01-26T02:45:36.911Z,100.00
2024-01-26T02:48:05.505Z,100.00
2024-01-26T02:50:34.879Z,100.00
2024-01-26T02:53:02.325Z,100.00
2024-01-26T02:55:29.523Z,100.00
2024-01-26T02:57:57.126Z,100.00
2024-01-26T03:00:24.484Z,100.00
2024-01-26T03:02:52.165Z,100.00
2024-01-26T03:05:19.377Z,99.60
2024-01-26T03:07:46.859Z,99.43
2024-01-26T03:10:14.306Z,98.84
2024-01-26T03:12:41.827Z,98.94
2024-01-26T03:15:09.378Z,98.50
2024-01-26T03:17:37.388Z,98.72
2024-01-26T03:20:05.208Z,98.65
2024-01-26T03:22:32.794Z,98.18
2024-01-26T03:25:00.202Z,97.66
2024-01-26T03:27:29.004Z,97.34
2024-01-26T03:29:56.457Z,97.20
2024-01-26T03:32:23.954Z,97.06
2024-01-26T03:34:51.340Z,96.88
2024-01-26T03:37:18.824Z,97.17
2024-01-26T03:39:46.068Z,96.91
2024-01-26T03:42:13.520Z,96.39
2024-01-26T03:44:42.212Z,96.13
2024-01-26T03:47:10.359Z,96.54
2024-01-26T03:49:42.386Z,96.72
2024-01-26T03:52:09.824Z,97.19
2024-01-26T03:54:37.224Z,97.14
2024-01-26T03:57:06.802Z,97.26
2024-01-26T03:59:34.306Z,97.33
2024-01-26T04:02:01.670Z,97.62
2024-01-26T04:04:29.053Z,97.65
2024-01-26T04:06:56.498Z,97.84
2024-01-26T04:09:23.833Z,97.90
2024-01-26T04:11:51.269Z,98.06
2024-01-26T04:14:21.538Z,98.21
2024-01-26T04:16:49.367Z,98.17
2024-01-26T04:19:16.833Z,97.99
2024-01-26T04:21:44.376Z,97.72
2024-01-26T04:24:11.765Z,96.91
2024-01-26T04:26:39.170Z,96.70
2024-01-26T04:29:06.503Z,96.61
2024-01-26T04:31:33.821Z,96.10
2024-01-26T04:34:01.282Z,96.00
2024-01-26T04:36:28.892Z,95.87
2024-01-26T04:38:56.792Z,95.95
2024-01-26T04:41:24.185Z,96.37
2024-01-26T04:43:51.560Z,96.16
2024-01-26T04:46:18.920Z,96.48
2024-01-26T04:48:46.376Z,95.91
2024-01-26T04:51:13.831Z,95.05
2024-01-26T04:53:41.153Z,95.22
2024-01-26T04:56:11.959Z,95.79
2024-01-26T04:58:39.848Z,95.44
2024-01-26T05:01:08.246Z,95.54
2024-01-26T05:03:35.783Z,95.78
2024-01-26T05:06:03.404Z,95.98
2024-01-26T05:08:31.177Z,95.88
2024-01-26T05:10:58.562Z,95.97
2024-01-26T05:13:25.982Z,96.11
2024-01-26T05:15:53.267Z,95.65
2024-01-26T05:18:20.888Z,95.49
2024-01-26T05:20:48.293Z,95.37
2024-01-26T05:23:15.528Z,95.60
2024-01-26T05:25:43.372Z,95.24
2024-01-26T05:28:10.856Z,95.24
2024-01-26T05:30:38.243Z,95.58
2024-01-26T05:33:05.943Z,95.76
2024-01-26T05:35:33.388Z,95.75
2024-01-26T05:38:00.663Z,96.39
2024-01-26T05:40:28.081Z,96.38
2024-01-26T05:42:55.448Z,96.91
2024-01-26T05:45:23.317Z,97.24
2024-01-26T05:47:51.117Z,97.03
2024-01-26T05:50:18.605Z,96.89
2024-01-26T05:52:45.880Z,97.16
2024-01-26T05:55:13.439Z,97.05
2024-01-26T05:57:40.926Z,96.87
2024-01-26T06:00:09.476Z,96.89
2024-01-26T06:02:36.873Z,96.83
2024-01-26T06:05:04.733Z,96.69
2024-01-26T06:07:32.321Z,95.96
2024-01-26T06:09:59.782Z,95.32
2024-01-26T06:12:27.166Z,94.57
2024-01-26T06:14:54.561Z,94.48
2024-01-26T06:17:22.131Z,94.50
2024-01-26T06:19:49.396Z,94.39
2024-01-26T06:22:16.899Z,95.34
2024-01-26T06:24:44.253Z,95.28
2024-01-26T06:27:14.264Z,93.63
2024-01-26T06:29:42.473Z,90.54
2024-01-26T06:32:09.924Z,89.27
2024-01-26T06:34:42.069Z,88.94
2024-01-26T06:37:09.787Z,88.23
2024-01-26T06:39:37.097Z,88.03
2024-01-26T06:42:04.931Z,88.34
2024-01-26T06:44:35.583Z,88.74
2024-01-26T06:47:03.174Z,89.12
2024-01-26T06:49:30.851Z,88.95
2024-01-26T06:51:58.260Z,89.25
2024-01-26T06:54:25.702Z,89.07
2024-01-26T06:56:53.170Z,89.03
2024-01-26T06:59:20.515Z,88.89
2024-01-26T07:01:47.820Z,88.75
2024-01-26T07:04:15.329Z,88.54
2024-01-26T07:06:42.805Z,88.19
2024-01-26T07:09:10.282Z,88.14
2024-01-26T07:11:39.684Z,87.85
2024-01-26T07:14:07.284Z,87.45
2024-01-26T07:16:34.604Z,86.30
2024-01-26T07:19:02.214Z,86.42
2024-01-26T07:21:29.637Z,86.06
2024-01-26T07:23:57.041Z,85.35
2024-01-26T07:26:24.391Z,85.58
2024-01-26T07:28:51.821Z,85.95
2024-01-26T07:31:20.533Z,85.28
2024-01-26T07:33:47.956Z,85.48
2024-01-26T07:36:15.552Z,85.23
2024-01-26T07:38:43.014Z,84.81
2024-01-26T07:41:10.324Z,84.49
2024-01-26T07:43:37.673Z,84.28
2024-01-26T07:46:05.618Z,83.98
2024-01-26T07:48:33.180Z,84.09
2024-01-26T07:51:00.536Z,84.15
2024-01-26T07:53:27.953Z,84.15
2024-01-26T07:55:55.785Z,83.89
2024-01-26T07:58:23.666Z,84.00
2024-01-26T08:00:51.172Z,84.27
2024-01-26T08:03:18.733Z,85.30
2024-01-26T08:05:46.181Z,85.91
2024-01-26T08:08:13.778Z,86.50
2024-01-26T08:10:41.162Z,86.31
2024-01-26T08:13:11.106Z,86.74
2024-01-26T08:15:38.606Z,86.11
2024-01-26T08:18:06.217Z,86.12
2024-01-26T08:20:34.709Z,84.80
2024-01-26T08:23:02.411Z,83.34
2024-01-26T08:25:29.747Z,83.65
2024-01-26T08:27:57.234Z,83.54
2024-01-26T08:30:25.224Z,83.59
2024-01-26T08:32:53.447Z,83.22
2024-01-26T08:35:21.045Z,82.95
2024-01-26T08:37:48.702Z,81.70
2024-01-26T08:40:16.147Z,80.52
2024-01-26T08:42:46.085Z,81.56
2024-01-26T08:45:13.919Z,82.35
2024-01-26T08:47:42.420Z,82.50
2024-01-26T08:50:10.511Z,83.11
2024-01-26T08:52:38.305Z,80.85
2024-01-26T08:55:07.149Z,80.48
2024-01-26T08:57:34.612Z,80.39
2024-01-26T09:00:05.770Z,80.13
2024-01-26T09:02:33.366Z,79.00
2024-01-26T09:05:02.875Z,78.72
2024-01-26T09:07:30.648Z,78.16
2024-01-26T09:09:58.054Z,77.65
2024-01-26T09:12:26.505Z,76.64
2024-01-26T09:14:53.968Z,76.38
2024-01-26T09:17:21.272Z,74.80
2024-01-26T09:19:48.810Z,75.35
2024-01-26T09:22:16.295Z,76.24
2024-01-26T09:24:43.662Z,75.39
2024-01-26T09:27:11.182Z,73.92
2024-01-26T09:29:38.711Z,73.84
2024-01-26T09:32:06.632Z,73.35
2024-01-26T09:34:34.286Z,73.78
2024-01-26T09:37:02.041Z,73.83
2024-01-26T09:39:29.445Z,73.87
2024-01-26T09:41:57.236Z,74.31
2024-01-26T09:44:24.691Z,74.56
2024-01-26T09:46:52.130Z,75.47
2024-01-26T09:49:19.449Z,77.21
2024-01-26T09:51:47.137Z,77.60
2024-01-26T09:54:16.710Z,76.32
2024-01-26T09:56:44.726Z,75.24
2024-01-26T09:59:12.972Z,76.04
2024-01-26T10:01:43.407Z,77.56
2024-01-26T10:04:10.923Z,79.92
2024-01-26T10:06:39.434Z,79.78
2024-01-26T10:09:10.217Z,78.71
2024-01-26T10:11:38.037Z,78.83
2024-01-26T10:14:05.343Z,78.39
2024-01-26T10:16:32.800Z,78.72
2024-01-26T10:19:00.520Z,76.99
2024-01-26T10:21:28.155Z,76.48
2024-01-26T10:23:55.987Z,75.22
2024-01-26T10:26:23.539Z,74.81
2024-01-26T10:28:52.376Z,74.15
2024-01-26T10:31:20.773Z,73.14
2024-01-26T10:33:51.709Z,73.96
2024-01-26T10:36:21.327Z,73.12
2024-01-26T10:38:52.925Z,73.05
2024-01-26T10:41:22.607Z,73.23
2024-01-26T10:43:54.234Z,72.80
2024-01-26T10:46:21.845Z,72.68
2024-01-26T10:48:50.483Z,72.43
2024-01-26T10:51:19.161Z,72.36
2024-01-26T10:53:47.969Z,73.22
2024-01-26T10:56:15.955Z,72.55
2024-01-26T10:58:43.362Z,72.83
2024-01-26T11:01:13.650Z,72.74
2024-01-26T11:03:41.429Z,73.29
2024-01-26T11:06:11.083Z,72.96
2024-01-26T11:08:41.956Z,73.12
2024-01-26T11:11:09.881Z,73.88
2024-01-26T11:13:39.106Z,73.60
2024-01-26T11:16:07.622Z,74.37
2024-01-26T11:18:39.648Z,74.01
2024-01-26T11:21:07.283Z,74.28
2024-01-26T11:23:43.063Z,75.06
2024-01-26T11:26:17.885Z,75.54
2024-01-26T11:28:47.402Z,74.33
2024-01-26T11:31:14.914Z,75.10
2024-01-26T11:33:42.607Z,74.71
2024-01-26T11:36:16.303Z,75.08
2024-01-26T11:38:44.453Z,74.72
2024-01-26T11:41:12.553Z,75.05
2024-01-26T11:43:48.514Z,75.46
2024-01-26T11:46:17.482Z,75.56
2024-01-26T11:48:44.902Z,75.78
2024-01-26T11:51:12.773Z,75.70
2024-01-26T11:53:40.433Z,76.07
2024-01-26T11:56:08.066Z,76.19
2024-01-26T11:58:36.620Z,76.85
2024-01-26T12:01:06.700Z,78.02
2024-01-26T12:03:34.408Z,78.87
2024-01-26T12:06:02.553Z,78.95
2024-01-26T12:08:30.377Z,80.15
2024-01-26T12:10:58.621Z,80.10
2024-01-26T12:13:26.758Z,78.24
2024-01-26T12:15:54.180Z,78.34
2024-01-26T12:18:21.742Z,80.38
2024-01-26T12:20:50.029Z,82.24
2024-01-26T12:23:22.536Z,81.29
2024-01-26T12:25:54.252Z,82.38
2024-01-26T12:28:22.648Z,82.85
2024-01-26T12:30:51.468Z,83.75
2024-01-26T12:33:19.261Z,83.02
2024-01-26T12:35:49.171Z,82.97
2024-01-26T12:38:17.272Z,83.17
2024-01-26T12:40:45.822Z,84.36
2024-01-26T12:43:13.547Z,84.96
2024-01-26T12:45:40.814Z,83.93
2024-01-26T12:48:09.626Z,83.12
2024-01-26T12:50:37.591Z,84.15
2024-01-26T12:53:04.965Z,83.06
2024-01-26T12:55:32.342Z,83.45
2024-01-26T12:57:59.626Z,85.61
2024-01-26T13:00:28.580Z,86.41
2024-01-26T13:02:57.486Z,85.16
2024-01-26T13:05:25.832Z,86.33
2024-01-26T13:07:53.497Z,85.10
2024-01-26T13:10:20.905Z,85.96
2024-01-26T13:12:48.365Z,85.48
2024-01-26T13:15:15.836Z,84.45
2024-01-26T13:17:44.029Z,85.32
2024-01-26T13:20:19.395Z,85.42
2024-01-26T13:22:49.502Z,84.80
2024-01-26T13:25:17.242Z,84.71
2024-01-26T13:27:44.914Z,85.65
2024-01-26T13:30:13.093Z,85.48
2024-01-26T13:32:40.880Z,85.38
2024-01-26T13:35:08.588Z,85.41
2024-01-26T13:37:36.970Z,86.33
2024-01-26T13:40:07.658Z,85.70
2024-01-26T13:42:35.587Z,87.65
2024-01-26T13:45:04.098Z,89.03
2024-01-26T13:47:31.688Z,89.63
2024-01-26T13:50:00.492Z,89.08
2024-01-26T13:52:28.166Z,87.75
2024-01-26T13:54:55.504Z,88.35
2024-01-26T13:57:23.101Z,88.00
2024-01-26T13:59:53.873Z,88.10
2024-01-26T14:02:41.310Z,90.09
2024-01-26T14:05:09.239Z,89.71
2024-01-26T14:07:36.815Z,90.21
2024-01-26T14:10:05.089Z,90.56
2024-01-26T14:12:32.410Z,90.00
2024-01-26T14:15:01.458Z,89.99
2024-01-26T14:17:28.808Z,90.16
2024-01-26T14:19:56.394Z,90.41
2024-01-26T14:22:23.638Z,91.14
2024-01-26T14:24:51.006Z,92.17
2024-01-26T14:27:20.620Z,92.33
2024-01-26T14:29:48.127Z,93.01
2024-01-26T14:32:15.415Z,94.10
2024-01-26T14:34:43.034Z,95.16
2024-01-26T14:37:10.466Z,95.42
2024-01-26T14:39:39.859Z,94.50
2024-01-26T14:42:08.087Z,94.21
2024-01-26T14:44:36.893Z,94.60
2024-01-26T14:47:04.894Z,95.82
2024-01-26T14:49:34.607Z,95.98
2024-01-26T14:52:04.202Z,95.45
2024-01-26T14:54:33.100Z,95.63
2024-01-26T14:57:00.568Z,95.36
2024-01-26T14:59:29.336Z,95.62
2024-01-26T15:01:58.260Z,95.52
2024-01-26T15:04:25.542Z,95.67
2024-01-26T15:06:54.006Z,95.62
2024-01-26T15:09:21.521Z,95.78
2024-01-26T15:11:48.936Z,95.73
2024-01-26T15:14:16.425Z,96.54
2024-01-26T15:16:43.771Z,96.55
2024-01-26T15:19:11.260Z,96.70
2024-01-26T15:21:42.731Z,97.48
2024-01-26T15:24:12.073Z,98.35
2024-01-26T15:26:45.698Z,98.15
2024-01-26T15:29:13.268Z,98.39
2024-01-26T15:31:40.564Z,98.63
2024-01-26T15:34:08.163Z,98.65
2024-01-26T15:36:36.069Z,99.00
2024-01-26T15:39:05.043Z,99.41
2024-01-26T15:41:32.366Z,99.28
2024-01-26T15:43:59.696Z,99.56
2024-01-26T15:46:27.954Z,99.88
2024-01-26T15:48:55.450Z,100.00
2024-01-26T15:51:22.919Z,100.00
2024-01-26T15:53:50.400Z,100.00
2024-01-26T15:56:17.934Z,100.00
2024-01-26T15:58:46.888Z,100.00
2024-01-26T16:01:18.323Z,100.00
2024-01-26T16:03:52.936Z,100.00
2024-01-26T16:06:20.482Z,100.00
2024-01-26T16:08:48.403Z,100.00
2024-01-26T16:11:20.592Z,100.00
2024-01-26T16:13:49.481Z,100.00
2024-01-26T16:16:17.816Z,100.00
2024-01-26T16:18:46.249Z,100.00
2024-01-26T16:21:13.814Z,100.00
2024-01-26T16:23:41.304Z,100.00
2024-01-26T16:26:08.936Z,100.00
2024-01-26T16:28:36.307Z,100.00
2024-01-26T16:31:03.647Z,100.00
2024-01-26T16:33:31.019Z,100.00
2024-01-26T16:35:58.546Z,100.00
2024-01-26T16:38:25.827Z,100.00
2024-01-26T16:40:53.295Z,100.00
2024-01-26T16:43:20.866Z,100.00
2024-01-26T16:45:48.241Z,100.00
2024-01-26T16:48:16.015Z,100.00
2024-01-26T16:50:43.702Z,100.00
2024-01-26T16:53:11.156Z,100.00
2024-01-26T16:55:38.389Z,100.00
2024-01-26T16:58:05.858Z,100.00
2024-01-26T17:00:33.214Z,100.00
2024-01-26T17:03:01.300Z,100.00
2024-01-26T17:05:30.153Z,100.00
2024-01-26T17:07:57.970Z,100.00
2024-01-26T17:10:25.547Z,100.00
2024-01-26T17:12:53.322Z,100.00
2024-01-26T17:15:20.695Z,100.00
2024-01-26T17:17:49.350Z,100.00
2024-01-26T17:20:17.078Z,100.00
2024-01-26T17:22:44.413Z,99.25
2024-01-26T17:25:11.661Z,98.44
2024-01-26T17:27:39.367Z,97.88
2024-01-26T17:30:07.730Z,97.18
2024-01-26T17:32:40.154Z,96.38
2024-01-26T17:35:08.072Z,96.07
2024-01-26T17:37:35.634Z,96.13
2024-01-26T17:40:04.475Z,96.07
2024-01-26T17:42:32.755Z,96.63
2024-01-26T17:45:00.309Z,96.98
2024-01-26T17:47:27.856Z,97.78
2024-01-26T17:49:55.662Z,98.56
2024-01-26T17:52:25.057Z,99.27
2024-01-26T17:54:52.830Z,99.57
2024-01-26T17:57:20.363Z,100.00
2024-01-26T17:59:48.147Z,100.00
2024-01-26T18:02:16.378Z,100.00
2024-01-26T18:04:43.903Z,100.00
2024-01-26T18:07:11.310Z,100.00
2024-01-26T18:09:38.667Z,100.00
2024-01-26T18:12:06.328Z,100.00
2024-01-26T18:14:34.008Z,100.00
2024-01-26T18:17:01.314Z,100.00
2024-01-26T18:19:28.779Z,100.00
2024-01-26T18:21:56.321Z,100.00
2024-01-26T18:24:23.817Z,100.00
2024-01-26T18:26:51.927Z,100.00
2024-01-26T18:29:19.180Z,100.00
2024-01-26T18:31:46.716Z,100.00
2024-01-26T18:34:14.311Z,100.00
2024-01-26T18:36:41.789Z,100.00
2024-01-26T18:39:13.754Z,100.00
2024-01-26T18:41:41.239Z,100.00
2024-01-26T18:44:09.832Z,100.00
2024-01-26T18:46:37.067Z,100.00
2024-01-26T18:49:05.599Z,100.00
2024-01-26T18:51:33.028Z,100.00
2024-01-26T18:54:02.095Z,100.00
2024-01-26T18:56:30.168Z,100.00
2024-01-26T18:58:57.736Z,100.00
2024-01-26T19:01:25.498Z,100.00
2024-01-26T19:03:54.827Z,100.00
2024-01-26T19:06:23.771Z,100.00
2024-01-26T19:08:51.309Z,100.00
2024-01-26T19:11:18.911Z,100.00
2024-01-26T19:13:46.348Z,100.00
2024-01-26T19:16:16.708Z,100.00
2024-01-26T19:18:51.368Z,100.00
2024-01-26T19:21:19.536Z,100.00
2024-01-26T19:23:47.310Z,100.00
2024-01-26T19:26:14.985Z,100.00
2024-01-26T19:28:42.331Z,100.00
2024-01-26T19:31:09.701Z,100.00
2024-01-26T19:33:37.910Z,100.00
2024-01-26T19:36:05.761Z,100.00
2024-01-26T19:38:34.216Z,100.00
2024-01-26T19:41:02.412Z,100.00
2024-01-26T19:43:30.801Z,100.00
2024-01-26T19:45:58.090Z,100.00
2024-01-26T19:48:25.606Z,100.00
2024-01-26T19:50:53.052Z,100.00
2024-01-26T19:53:20.952Z,100.00
2024-01-26T19:55:52.278Z,100.00
2024-01-26T19:58:20.082Z,100.00
2024-01-26T20:00:54.213Z,100.00
2024-01-26T20:03:24.921Z,100.00
2024-01-26T20:05:53.549Z,100.00
2024-01-26T20:08:24.279Z,100.00
2024-01-26T20:10:52.653Z,100.00
2024-01-26T20:13:21.674Z,100.00
2024-01-26T20:15:49.110Z,100.00
2024-01-26T20:18:17.940Z,100.00
2024-01-26T20:20:45.343Z,100.00
2024-01-26T20:23:12.801Z,100.00
2024-01-26T20:25:43.866Z,100.00
2024-01-26T20:28:11.364Z,100.00
2024-01-26T20:30:38.849Z,100.00
2024-01-26T20:33:06.511Z,100.00
2024-01-26T20:35:35.136Z,100.00
2024-01-26T20:38:02.589Z,100.00
2024-01-26T20:40:30.268Z,100.00
2024-01-26T20:43:01.551Z,100.00
2024-01-26T20:45:30.006Z,100.00
2024-01-26T20:47:58.396Z,100.00
2024-01-26T20:50:28.327Z,100.00
2024-01-26T20:52:55.783Z,100.00
2024-01-26T20:55:23.049Z,100.00
2024-01-26T20:57:54.833Z,100.00
2024-01-26T21:00:23.820Z,100.00
2024-01-26T21:02:52.059Z,100.00
2024-01-26T21:05:21.374Z,100.00
2024-01-26T21:07:59.810Z,100.00
2024-01-26T21:10:29.838Z,100.00
2024-01-26T21:12:57.760Z,100.00
2024-01-26T21:15:26.053Z,100.00
2024-01-26T21:17:54.265Z,100.00
2024-01-26T21:20:21.861Z,100.00
2024-01-26T21:22:54.187Z,100.00
2024-01-26T21:25:21.520Z,100.00
2024-01-26T21:27:50.207Z,100.00
2024-01-26T21:30:18.074Z,100.00
2024-01-26T21:32:46.049Z,100.00
2024-01-26T21:35:13.550Z,100.00
2024-01-26T21:37:42.911Z,100.00
2024-01-26T21:40:11.592Z,100.00
2024-01-26T21:42:38.993Z,100.00
2024-01-26T21:45:07.051Z,100.00
2024-01-26T21:47:35.169Z,100.00
2024-01-26T21:50:03.037Z,100.00
2024-01-26T21:52:30.805Z,100.00
2024-01-26T21:54:58.276Z,100.00
2024-01-26T21:57:25.868Z,100.00
2024-01-26T21:59:53.632Z,100.00
2024-01-26T22:02:21.996Z,100.00
2024-01-26T22:04:49.310Z,100.00
2024-01-26T22:07:17.491Z,100.00
2024-01-26T22:09:46.640Z,100.00
2024-01-26T22:12:16.001Z,100.00
2024-01-26T22:14:43.449Z,100.00
2024-01-26T22:17:10.840Z,100.00
2024-01-26T22:19:38.383Z,100.00
2024-01-26T22:22:05.839Z,100.00
2024-01-26T22:24:33.667Z,100.00
2024-01-26T22:27:01.028Z,100.00
2024-01-26T22:29:28.413Z,100.00
2024-01-26T22:31:55.812Z,100.00
2024-01-26T22:34:24.379Z,100.00
2024-01-26T22:36:51.809Z,100.00
2024-01-26T22:39:21.456Z,100.00
2024-01-26T22:41:50.402Z,100.00
2024-01-26T22:44:17.825Z,100.00
2024-01-26T22:46:45.465Z,100.00
2024-01-26T22:49:12.980Z,100.00
2024-01-26T22:51:40.483Z,100.00
2024-01-26T22:54:28.180Z,100.00
2024-01-26T22:56:55.763Z,100.00
2024-01-26T22:59:23.229Z,100.00
2024-01-26T23:01:52.780Z,100.00
2024-01-26T23:04:20.163Z,100.00
2024-01-26T23:06:48.991Z,100.00
2024-01-26T23:09:16.767Z,100.00
2024-01-26T23:11:44.409Z,100.00
2024-01-26T23:14:11.796Z,100.00
2024-01-26T23:16:39.250Z,100.00
2024-01-26T23:19:06.750Z,100.00
2024-01-26T23:21:34.498Z,100.00
2024-01-26T23:24:02.682Z,100.00
2024-01-26T23:26:30.029Z,100.00
2024-01-26T23:28:57.431Z,100.00
2024-01-26T23:31:24.880Z,100.00
2024-01-26T23:33:52.387Z,100.00
2024-01-26T23:36:19.901Z,100.00
2024-01-26T23:38:47.172Z,100.00
2024-01-26T23:41:14.681Z,100.00
2024-01-26T23:43:41.998Z,100.00
2024-01-26T23:46:09.959Z,100.00
2024-01-26T23:48:40.627Z,100.00
2024-01-26T23:51:08.686Z,100.00
2024-01-26T23:53:36.086Z,100.00
2024-01-26T23:56:04.365Z,100.00
2024-01-26T23:58:31.815Z,100.00
